sensor_id;sensor_type;location;lat;lon;timestamp;pressure;altitude;pressure_sealevel;temperature;humidity
7918;BME280;4004;42.624;23.386;2023-04-07T00:01:59;93840.25;;;2.60;49.90
7918;BME280;4004;42.624;23.386;2023-04-07T00:04:26;93829.16;;;2.41;50.25
7918;BME280;4004;42.624;23.386;2023-04-07T00:06:52;93845.09;;;2.49;50.31
7918;BME280;4004;42.624;23.386;2023-04-07T00:09:19;93839.91;;;2.53;50.02
7918;BME280;4004;42.624;23.386;2023-04-07T00:11:47;93838.53;;;2.47;50.11
7918;BME280;4004;42.624;23.386;2023-04-07T00:14:14;93844.47;;;2.53;50.47
7918;BME280;4004;42.624;23.386;2023-04-07T00:16:41;93843.50;;;2.48;50.53
7918;BME280;4004;42.624;23.386;2023-04-07T00:19:07;93835.09;;;2.55;50.32
7918;BME280;4004;42.624;23.386;2023-04-07T00:21:34;93841.31;;;2.51;50.00
7918;BME280;4004;42.624;23.386;2023-04-07T00:24:01;93834.31;;;2.55;50.31
7918;BME280;4004;42.624;23.386;2023-04-07T00:26:27;93841.50;;;2.54;50.60
7918;BME280;4004;42.624;23.386;2023-04-07T00:28:58;93837.75;;;2.55;50.70
7918;BME280;4004;42.624;23.386;2023-04-07T00:31:25;93834.47;;;2.49;51.03
7918;BME280;4004;42.624;23.386;2023-04-07T00:33:52;93835.88;;;2.56;50.95
7918;BME280;4004;42.624;23.386;2023-04-07T00:36:20;93829.66;;;2.60;50.91
7918;BME280;4004;42.624;23.386;2023-04-07T00:38:47;93836.50;;;2.53;51.24
7918;BME280;4004;42.624;23.386;2023-04-07T00:41:13;93839.91;;;2.53;50.88
7918;BME280;4004;42.624;23.386;2023-04-07T00:43:41;93829.78;;;2.55;51.17
7918;BME280;4004;42.624;23.386;2023-04-07T00:46:09;93836.34;;;2.58;50.91
7918;BME280;4004;42.624;23.386;2023-04-07T00:48:35;93837.59;;;2.52;51.03
7918;BME280;4004;42.624;23.386;2023-04-07T00:51:03;93827.94;;;2.56;51.07
7918;BME280;4004;42.624;23.386;2023-04-07T00:53:30;93832.59;;;2.50;50.96
7918;BME280;4004;42.624;23.386;2023-04-07T00:55:57;93829.31;;;2.53;50.85
7918;BME280;4004;42.624;23.386;2023-04-07T00:58:24;93835.56;;;2.48;50.55
7918;BME280;4004;42.624;23.386;2023-04-07T01:01:01;93839.13;;;2.35;51.49
7918;BME280;4004;42.624;23.386;2023-04-07T01:03:34;93827.91;;;2.47;51.09
7918;BME280;4004;42.624;23.386;2023-04-07T01:06:04;93835.22;;;2.41;51.43
7918;BME280;4004;42.624;23.386;2023-04-07T01:08:38;93825.25;;;2.38;51.62
7918;BME280;4004;42.624;23.386;2023-04-07T01:11:12;93833.06;;;2.43;50.76
7918;BME280;4004;42.624;23.386;2023-04-07T01:13:45;93823.38;;;2.39;50.97
7918;BME280;4004;42.624;23.386;2023-04-07T01:16:20;93833.22;;;2.38;51.22
7918;BME280;4004;42.624;23.386;2023-04-07T01:18:54;93837.25;;;2.44;51.23
7918;BME280;4004;42.624;23.386;2023-04-07T01:21:21;93840.84;;;2.48;51.21
7918;BME280;4004;42.624;23.386;2023-04-07T01:24:04;93830.56;;;2.47;50.80
7918;BME280;4004;42.624;23.386;2023-04-07T01:26:38;93825.28;;;2.56;51.02
7918;BME280;4004;42.624;23.386;2023-04-07T01:29:33;93819.34;;;2.59;51.28
7918;BME280;4004;42.624;23.386;2023-04-07T01:32:05;93817.31;;;2.56;51.72
7918;BME280;4004;42.624;23.386;2023-04-07T01:34:35;93821.97;;;2.50;51.32
7918;BME280;4004;42.624;23.386;2023-04-07T01:37:04;93810.13;;;2.56;51.06
7918;BME280;4004;42.624;23.386;2023-04-07T01:39:32;93812.00;;;2.56;50.97
7918;BME280;4004;42.624;23.386;2023-04-07T01:42:01;93816.22;;;2.57;50.77
7918;BME280;4004;42.624;23.386;2023-04-07T01:44:31;93808.88;;;2.62;50.32
7918;BME280;4004;42.624;23.386;2023-04-07T01:47:00;93804.66;;;2.61;50.19
7918;BME280;4004;42.624;23.386;2023-04-07T01:49:27;93807.94;;;2.67;49.61
7918;BME280;4004;42.624;23.386;2023-04-07T01:51:56;93802.47;;;2.63;49.83
7918;BME280;4004;42.624;23.386;2023-04-07T01:54:24;93813.41;;;2.70;49.53
7918;BME280;4004;42.624;23.386;2023-04-07T01:56:51;93803.72;;;2.66;49.40
7918;BME280;4004;42.624;23.386;2023-04-07T01:59:18;93804.19;;;2.68;49.62
7918;BME280;4004;42.624;23.386;2023-04-07T02:01:44;93808.38;;;2.78;49.27
7918;BME280;4004;42.624;23.386;2023-04-07T02:04:18;93806.53;;;2.69;49.61
7918;BME280;4004;42.624;23.386;2023-04-07T02:06:52;93803.56;;;2.71;49.21
7918;BME280;4004;42.624;23.386;2023-04-07T02:09:21;93801.53;;;2.68;49.69
7918;BME280;4004;42.624;23.386;2023-04-07T02:11:51;93803.88;;;2.69;49.61
7918;BME280;4004;42.624;23.386;2023-04-07T02:14:21;93802.94;;;2.74;49.48
7918;BME280;4004;42.624;23.386;2023-04-07T02:16:49;93805.91;;;2.73;49.40
7918;BME280;4004;42.624;23.386;2023-04-07T02:19:18;93806.06;;;2.76;49.91
7918;BME280;4004;42.624;23.386;2023-04-07T02:21:46;93810.75;;;2.79;49.72
7918;BME280;4004;42.624;23.386;2023-04-07T02:24:18;93811.03;;;2.86;49.47
7918;BME280;4004;42.624;23.386;2023-04-07T02:26:46;93803.53;;;2.88;51.76
7918;BME280;4004;42.624;23.386;2023-04-07T02:29:13;93802.78;;;2.88;53.43
7918;BME280;4004;42.624;23.386;2023-04-07T02:31:40;93792.63;;;2.73;54.62
7918;BME280;4004;42.624;23.386;2023-04-07T02:34:06;93807.31;;;2.70;52.94
7918;BME280;4004;42.624;23.386;2023-04-07T02:36:35;93795.44;;;2.76;49.91
7918;BME280;4004;42.624;23.386;2023-04-07T02:39:01;93790.91;;;2.77;50.26
7918;BME280;4004;42.624;23.386;2023-04-07T02:41:28;93800.59;;;2.81;49.80
7918;BME280;4004;42.624;23.386;2023-04-07T02:43:55;93798.25;;;2.88;49.35
7918;BME280;4004;42.624;23.386;2023-04-07T02:46:22;93812.16;;;2.94;49.12
7918;BME280;4004;42.624;23.386;2023-04-07T02:48:49;93802.59;;;3.02;49.54
7918;BME280;4004;42.624;23.386;2023-04-07T02:51:16;93806.66;;;3.08;49.01
7918;BME280;4004;42.624;23.386;2023-04-07T02:53:44;93803.81;;;3.13;48.71
7918;BME280;4004;42.624;23.386;2023-04-07T02:56:10;93804.28;;;3.15;49.00
7918;BME280;4004;42.624;23.386;2023-04-07T02:58:37;93807.59;;;3.12;49.00
7918;BME280;4004;42.624;23.386;2023-04-07T03:01:04;93815.09;;;3.10;49.11
7918;BME280;4004;42.624;23.386;2023-04-07T03:03:31;93816.97;;;3.18;48.87
7918;BME280;4004;42.624;23.386;2023-04-07T03:05:57;93818.69;;;3.14;49.10
7918;BME280;4004;42.624;23.386;2023-04-07T03:08:24;93831.50;;;3.03;55.38
7918;BME280;4004;42.624;23.386;2023-04-07T03:10:52;93819.47;;;2.88;58.80
7918;BME280;4004;42.624;23.386;2023-04-07T03:13:19;93817.16;;;2.78;61.30
7918;BME280;4004;42.624;23.386;2023-04-07T03:15:46;93821.22;;;2.58;62.92
7918;BME280;4004;42.624;23.386;2023-04-07T03:18:13;93825.72;;;2.58;64.96
7918;BME280;4004;42.624;23.386;2023-04-07T03:20:40;93825.56;;;2.54;66.25
7918;BME280;4004;42.624;23.386;2023-04-07T03:23:06;93818.69;;;2.53;67.13
7918;BME280;4004;42.624;23.386;2023-04-07T03:25:33;93824.78;;;2.36;68.04
7918;BME280;4004;42.624;23.386;2023-04-07T03:28:01;93827.44;;;2.36;68.36
7918;BME280;4004;42.624;23.386;2023-04-07T03:30:28;93824.00;;;2.27;69.09
7918;BME280;4004;42.624;23.386;2023-04-07T03:32:55;93820.06;;;2.16;70.14
7918;BME280;4004;42.624;23.386;2023-04-07T03:35:21;93806.47;;;2.08;69.57
7918;BME280;4004;42.624;23.386;2023-04-07T03:37:48;93812.72;;;2.13;63.62
7918;BME280;4004;42.624;23.386;2023-04-07T03:40:15;93809.94;;;2.35;56.03
7918;BME280;4004;42.624;23.386;2023-04-07T03:42:42;93808.72;;;2.50;54.61
7918;BME280;4004;42.624;23.386;2023-04-07T03:45:10;93807.00;;;2.54;53.50
7918;BME280;4004;42.624;23.386;2023-04-07T03:47:37;93806.22;;;2.62;53.30
7918;BME280;4004;42.624;23.386;2023-04-07T03:50:04;93805.44;;;2.62;53.24
7918;BME280;4004;42.624;23.386;2023-04-07T03:52:31;93807.00;;;2.54;52.71
7918;BME280;4004;42.624;23.386;2023-04-07T03:54:58;93819.03;;;2.52;53.32
7918;BME280;4004;42.624;23.386;2023-04-07T03:57:25;93820.88;;;2.68;52.36
7918;BME280;4004;42.624;23.386;2023-04-07T03:59:52;93819.47;;;2.71;52.46
7918;BME280;4004;42.624;23.386;2023-04-07T04:02:21;93821.66;;;2.78;52.33
7918;BME280;4004;42.624;23.386;2023-04-07T04:04:47;93824.31;;;2.86;52.43
7918;BME280;4004;42.624;23.386;2023-04-07T04:07:14;93821.06;;;2.89;51.85
7918;BME280;4004;42.624;23.386;2023-04-07T04:09:41;93828.38;;;3.01;51.64
7918;BME280;4004;42.624;23.386;2023-04-07T04:12:07;93828.06;;;3.11;51.75
7918;BME280;4004;42.624;23.386;2023-04-07T04:14:34;93828.06;;;3.20;51.60
7918;BME280;4004;42.624;23.386;2023-04-07T04:17:01;93827.41;;;3.15;51.77
7918;BME280;4004;42.624;23.386;2023-04-07T04:19:29;93830.41;;;2.96;51.69
7918;BME280;4004;42.624;23.386;2023-04-07T04:21:56;93829.03;;;2.89;52.53
7918;BME280;4004;42.624;23.386;2023-04-07T04:24:23;93829.47;;;2.57;53.22
7918;BME280;4004;42.624;23.386;2023-04-07T04:26:50;93821.94;;;2.24;54.21
7918;BME280;4004;42.624;23.386;2023-04-07T04:29:16;93820.38;;;2.23;55.26
7918;BME280;4004;42.624;23.386;2023-04-07T04:31:43;93840.53;;;2.33;54.55
7918;BME280;4004;42.624;23.386;2023-04-07T04:34:10;93847.56;;;2.46;55.16
7918;BME280;4004;42.624;23.386;2023-04-07T04:36:38;93851.81;;;2.56;55.42
7918;BME280;4004;42.624;23.386;2023-04-07T04:39:06;93851.34;;;2.54;55.58
7918;BME280;4004;42.624;23.386;2023-04-07T04:41:32;93847.50;;;2.20;56.45
7918;BME280;4004;42.624;23.386;2023-04-07T04:43:59;93851.03;;;1.89;56.67
7918;BME280;4004;42.624;23.386;2023-04-07T04:46:26;93845.84;;;1.84;56.92
7918;BME280;4004;42.624;23.386;2023-04-07T04:48:53;93857.06;;;1.81;56.56
7918;BME280;4004;42.624;23.386;2023-04-07T04:51:19;93864.84;;;1.77;56.66
7918;BME280;4004;42.624;23.386;2023-04-07T04:53:47;93858.94;;;1.80;56.48
7918;BME280;4004;42.624;23.386;2023-04-07T04:56:14;93868.63;;;1.85;56.78
7918;BME280;4004;42.624;23.386;2023-04-07T04:58:41;93866.09;;;1.80;56.85
7918;BME280;4004;42.624;23.386;2023-04-07T05:01:10;93866.25;;;1.75;58.87
7918;BME280;4004;42.624;23.386;2023-04-07T05:03:37;93865.56;;;1.60;59.39
7918;BME280;4004;42.624;23.386;2023-04-07T05:06:05;93871.50;;;1.66;61.23
7918;BME280;4004;42.624;23.386;2023-04-07T05:08:31;93872.28;;;1.66;63.26
7918;BME280;4004;42.624;23.386;2023-04-07T05:10:59;93875.47;;;1.86;65.77
7918;BME280;4004;42.624;23.386;2023-04-07T05:13:26;93871.56;;;1.83;67.69
7918;BME280;4004;42.624;23.386;2023-04-07T05:15:55;93877.31;;;1.77;68.87
7918;BME280;4004;42.624;23.386;2023-04-07T05:18:21;93880.31;;;1.84;69.99
7918;BME280;4004;42.624;23.386;2023-04-07T05:20:48;93878.84;;;2.00;70.28
7918;BME280;4004;42.624;23.386;2023-04-07T05:23:15;93876.84;;;2.15;69.59
7918;BME280;4004;42.624;23.386;2023-04-07T05:25:42;93882.81;;;2.38;68.22
7918;BME280;4004;42.624;23.386;2023-04-07T05:28:10;93895.03;;;2.47;67.09
7918;BME280;4004;42.624;23.386;2023-04-07T05:30:37;93888.50;;;2.54;66.79
7918;BME280;4004;42.624;23.386;2023-04-07T05:33:03;93891.75;;;2.59;66.28
7918;BME280;4004;42.624;23.386;2023-04-07T05:35:30;93888.50;;;2.88;65.34
7918;BME280;4004;42.624;23.386;2023-04-07T05:37:57;93888.78;;;3.48;63.23
7918;BME280;4004;42.624;23.386;2023-04-07T05:40:24;93893.84;;;3.88;60.68
7918;BME280;4004;42.624;23.386;2023-04-07T05:42:50;93894.59;;;3.97;61.00
7918;BME280;4004;42.624;23.386;2023-04-07T05:45:19;93895.00;;;4.17;59.46
7918;BME280;4004;42.624;23.386;2023-04-07T05:47:45;93889.19;;;4.23;57.82
7918;BME280;4004;42.624;23.386;2023-04-07T05:50:14;93894.88;;;4.04;57.73
7918;BME280;4004;42.624;23.386;2023-04-07T05:52:41;93896.06;;;3.86;59.48
7918;BME280;4004;42.624;23.386;2023-04-07T05:55:08;93895.63;;;3.66;59.42
7918;BME280;4004;42.624;23.386;2023-04-07T05:57:35;93892.97;;;3.66;59.22
7918;BME280;4004;42.624;23.386;2023-04-07T06:00:02;93897.47;;;3.83;59.20
7918;BME280;4004;42.624;23.386;2023-04-07T06:02:30;93901.81;;;3.97;58.87
7918;BME280;4004;42.624;23.386;2023-04-07T06:04:57;93897.50;;;4.13;58.55
7918;BME280;4004;42.624;23.386;2023-04-07T06:07:23;93892.16;;;4.22;58.19
7918;BME280;4004;42.624;23.386;2023-04-07T06:09:50;93892.47;;;4.80;55.83
7918;BME280;4004;42.624;23.386;2023-04-07T06:12:17;93889.47;;;5.23;54.27
7918;BME280;4004;42.624;23.386;2023-04-07T06:14:46;93879.97;;;5.34;54.56
7918;BME280;4004;42.624;23.386;2023-04-07T06:17:16;93895.66;;;5.69;51.80
7918;BME280;4004;42.624;23.386;2023-04-07T06:19:44;93902.03;;;5.89;51.30
7918;BME280;4004;42.624;23.386;2023-04-07T06:22:11;93897.56;;;6.27;51.75
7918;BME280;4004;42.624;23.386;2023-04-07T06:24:38;93903.34;;;6.53;49.50
7918;BME280;4004;42.624;23.386;2023-04-07T06:27:05;93890.09;;;6.81;47.68
7918;BME280;4004;42.624;23.386;2023-04-07T06:29:32;93890.19;;;6.85;47.50
7918;BME280;4004;42.624;23.386;2023-04-07T06:31:59;93890.66;;;6.87;47.75
7918;BME280;4004;42.624;23.386;2023-04-07T06:34:26;93893.41;;;6.91;46.67
7918;BME280;4004;42.624;23.386;2023-04-07T06:36:54;93895.19;;;6.99;46.86
7918;BME280;4004;42.624;23.386;2023-04-07T06:39:21;93893.53;;;7.22;45.79
7918;BME280;4004;42.624;23.386;2023-04-07T06:41:49;93897.22;;;7.58;45.91
7918;BME280;4004;42.624;23.386;2023-04-07T06:44:16;93893.22;;;7.52;45.58
7918;BME280;4004;42.624;23.386;2023-04-07T06:46:43;93887.44;;;7.78;45.28
7918;BME280;4004;42.624;23.386;2023-04-07T06:49:11;93897.66;;;8.20;44.11
7918;BME280;4004;42.624;23.386;2023-04-07T06:51:38;93899.94;;;8.50;42.89
7918;BME280;4004;42.624;23.386;2023-04-07T06:54:06;93900.50;;;8.75;43.21
7918;BME280;4004;42.624;23.386;2023-04-07T06:56:37;93897.84;;;9.10;42.36
7918;BME280;4004;42.624;23.386;2023-04-07T06:59:03;93879.38;;;9.44;40.98
7918;BME280;4004;42.624;23.386;2023-04-07T07:01:30;93893.22;;;9.66;41.09
7918;BME280;4004;42.624;23.386;2023-04-07T07:03:57;93894.34;;;9.26;41.37
7918;BME280;4004;42.624;23.386;2023-04-07T07:06:24;93896.41;;;8.97;43.17
7918;BME280;4004;42.624;23.386;2023-04-07T07:08:51;93901.63;;;8.90;41.93
7918;BME280;4004;42.624;23.386;2023-04-07T07:11:19;93906.34;;;8.97;41.71
7918;BME280;4004;42.624;23.386;2023-04-07T07:13:46;93893.28;;;8.95;41.55
7918;BME280;4004;42.624;23.386;2023-04-07T07:16:13;93901.97;;;9.43;41.05
7918;BME280;4004;42.624;23.386;2023-04-07T07:18:40;93896.16;;;9.80;40.74
7918;BME280;4004;42.624;23.386;2023-04-07T07:21:06;93890.34;;;9.98;40.18
7918;BME280;4004;42.624;23.386;2023-04-07T07:23:33;93894.03;;;10.32;40.03
7918;BME280;4004;42.624;23.386;2023-04-07T07:26:00;93908.34;;;10.89;38.87
7918;BME280;4004;42.624;23.386;2023-04-07T07:28:28;93902.84;;;11.05;39.79
7918;BME280;4004;42.624;23.386;2023-04-07T07:30:55;93901.00;;;11.13;39.08
7918;BME280;4004;42.624;23.386;2023-04-07T07:33:22;93904.63;;;10.97;38.87
7918;BME280;4004;42.624;23.386;2023-04-07T07:35:48;93896.38;;;11.40;37.97
7918;BME280;4004;42.624;23.386;2023-04-07T07:38:15;93898.59;;;11.95;34.65
7918;BME280;4004;42.624;23.386;2023-04-07T07:40:42;93902.06;;;12.36;33.56
7918;BME280;4004;42.624;23.386;2023-04-07T07:43:09;93906.75;;;12.43;32.78
7918;BME280;4004;42.624;23.386;2023-04-07T07:45:38;93911.06;;;13.03;31.99
7918;BME280;4004;42.624;23.386;2023-04-07T07:48:04;93906.81;;;12.98;31.83
7918;BME280;4004;42.624;23.386;2023-04-07T07:50:31;93906.50;;;12.59;31.85
7918;BME280;4004;42.624;23.386;2023-04-07T07:52:58;93900.03;;;12.26;32.77
7918;BME280;4004;42.624;23.386;2023-04-07T07:55:24;93899.94;;;11.81;33.01
7918;BME280;4004;42.624;23.386;2023-04-07T07:57:51;93895.72;;;11.80;33.04
7918;BME280;4004;42.624;23.386;2023-04-07T08:00:18;93900.56;;;12.01;32.80
7918;BME280;4004;42.624;23.386;2023-04-07T08:02:46;93901.66;;;12.34;32.79
7918;BME280;4004;42.624;23.386;2023-04-07T08:05:13;93897.91;;;12.46;32.44
7918;BME280;4004;42.624;23.386;2023-04-07T08:07:40;93894.28;;;12.72;32.24
7918;BME280;4004;42.624;23.386;2023-04-07T08:10:08;93895.41;;;12.68;32.29
7918;BME280;4004;42.624;23.386;2023-04-07T08:12:35;93894.00;;;12.36;31.66
7918;BME280;4004;42.624;23.386;2023-04-07T08:15:01;93885.41;;;12.27;32.25
7918;BME280;4004;42.624;23.386;2023-04-07T08:17:28;93893.13;;;12.29;32.18
7918;BME280;4004;42.624;23.386;2023-04-07T08:19:56;93885.38;;;11.86;32.04
7918;BME280;4004;42.624;23.386;2023-04-07T08:22:23;93892.16;;;11.43;32.33
7918;BME280;4004;42.624;23.386;2023-04-07T08:24:50;93881.84;;;11.18;33.01
7918;BME280;4004;42.624;23.386;2023-04-07T08:27:16;93891.16;;;10.94;32.93
7918;BME280;4004;42.624;23.386;2023-04-07T08:29:43;93909.03;;;11.09;32.99
7918;BME280;4004;42.624;23.386;2023-04-07T08:32:10;93904.53;;;10.90;33.46
7918;BME280;4004;42.624;23.386;2023-04-07T08:34:37;93894.34;;;10.76;34.00
7918;BME280;4004;42.624;23.386;2023-04-07T08:37:05;93900.44;;;10.73;33.86
7918;BME280;4004;42.624;23.386;2023-04-07T08:39:33;93892.28;;;10.93;33.58
7918;BME280;4004;42.624;23.386;2023-04-07T08:42:00;93912.81;;;11.05;33.47
7918;BME280;4004;42.624;23.386;2023-04-07T08:44:28;93902.44;;;11.03;33.90
7918;BME280;4004;42.624;23.386;2023-04-07T08:46:56;93898.50;;;10.97;34.21
7918;BME280;4004;42.624;23.386;2023-04-07T08:49:26;93882.97;;;10.87;33.86
7918;BME280;4004;42.624;23.386;2023-04-07T08:51:55;93893.94;;;10.51;34.30
7918;BME280;4004;42.624;23.386;2023-04-07T08:54:27;93885.06;;;10.47;34.92
7918;BME280;4004;42.624;23.386;2023-04-07T08:56:54;93899.63;;;10.46;34.50
7918;BME280;4004;42.624;23.386;2023-04-07T08:59:21;93899.50;;;10.62;34.89
7918;BME280;4004;42.624;23.386;2023-04-07T09:01:51;93888.91;;;10.73;34.30
7918;BME280;4004;42.624;23.386;2023-04-07T09:04:18;93902.44;;;11.03;34.28
7918;BME280;4004;42.624;23.386;2023-04-07T09:06:48;93906.88;;;11.18;33.85
7918;BME280;4004;42.624;23.386;2023-04-07T09:09:15;93897.19;;;11.14;34.00
7918;BME280;4004;42.624;23.386;2023-04-07T09:11:43;93901.25;;;11.61;33.66
7918;BME280;4004;42.624;23.386;2023-04-07T09:14:09;93907.97;;;11.78;33.69
7918;BME280;4004;42.624;23.386;2023-04-07T09:16:36;93902.84;;;11.99;32.73
7918;BME280;4004;42.624;23.386;2023-04-07T09:19:03;93902.03;;;11.95;32.89
7918;BME280;4004;42.624;23.386;2023-04-07T09:21:46;93902.34;;;12.24;33.16
7918;BME280;4004;42.624;23.386;2023-04-07T09:24:19;93899.28;;;12.26;32.99
7918;BME280;4004;42.624;23.386;2023-04-07T09:26:47;93908.31;;;12.07;33.35
7918;BME280;4004;42.624;23.386;2023-04-07T09:29:18;93906.16;;;11.86;31.85
7918;BME280;4004;42.624;23.386;2023-04-07T09:31:46;93901.06;;;11.77;31.70
7918;BME280;4004;42.624;23.386;2023-04-07T09:34:33;93909.97;;;11.51;32.97
7918;BME280;4004;42.624;23.386;2023-04-07T09:37:00;93905.50;;;11.32;33.52
7918;BME280;4004;42.624;23.386;2023-04-07T09:39:27;93909.88;;;11.44;33.26
7918;BME280;4004;42.624;23.386;2023-04-07T09:41:56;93898.72;;;11.75;33.29
7918;BME280;4004;42.624;23.386;2023-04-07T09:44:23;93912.09;;;11.98;32.99
7918;BME280;4004;42.624;23.386;2023-04-07T09:46:51;93908.25;;;11.69;33.02
7918;BME280;4004;42.624;23.386;2023-04-07T09:49:18;93915.59;;;11.38;33.69
7918;BME280;4004;42.624;23.386;2023-04-07T09:51:56;93910.63;;;11.40;33.02
7918;BME280;4004;42.624;23.386;2023-04-07T09:54:32;93914.34;;;11.32;33.44
7918;BME280;4004;42.624;23.386;2023-04-07T09:57:02;93909.25;;;11.24;33.65
7918;BME280;4004;42.624;23.386;2023-04-07T09:59:29;93900.16;;;10.78;34.14
7918;BME280;4004;42.624;23.386;2023-04-07T10:01:57;93915.22;;;10.60;34.62
7918;BME280;4004;42.624;23.386;2023-04-07T10:04:24;93893.25;;;10.54;34.88
7918;BME280;4004;42.624;23.386;2023-04-07T10:06:52;93901.91;;;10.67;35.15
7918;BME280;4004;42.624;23.386;2023-04-07T10:09:19;93911.94;;;10.70;35.55
7918;BME280;4004;42.624;23.386;2023-04-07T10:11:49;93910.94;;;10.82;35.53
7918;BME280;4004;42.624;23.386;2023-04-07T10:14:18;93906.41;;;11.13;34.89
7918;BME280;4004;42.624;23.386;2023-04-07T10:16:46;93912.38;;;11.29;34.23
7918;BME280;4004;42.624;23.386;2023-04-07T10:19:13;93911.69;;;11.36;34.39
7918;BME280;4004;42.624;23.386;2023-04-07T10:21:42;93918.22;;;11.35;34.39
7918;BME280;4004;42.624;23.386;2023-04-07T10:24:18;93914.06;;;11.71;34.15
7918;BME280;4004;42.624;23.386;2023-04-07T10:26:52;93908.03;;;11.81;33.23
7918;BME280;4004;42.624;23.386;2023-04-07T10:29:24;93903.25;;;11.68;33.94
7918;BME280;4004;42.624;23.386;2023-04-07T10:31:52;93914.69;;;11.91;33.69
7918;BME280;4004;42.624;23.386;2023-04-07T10:37:19;93909.13;;;11.77;33.46
7918;BME280;4004;42.624;23.386;2023-04-07T10:39:47;93917.81;;;11.63;33.57
7918;BME280;4004;42.624;23.386;2023-04-07T10:45:55;93918.13;;;11.28;34.58
7918;BME280;4004;42.624;23.386;2023-04-07T10:48:25;93924.13;;;11.17;35.01
7918;BME280;4004;42.624;23.386;2023-04-07T10:51:17;93925.31;;;10.93;35.29
7918;BME280;4004;42.624;23.386;2023-04-07T10:57:07;93919.41;;;11.07;34.63
7918;BME280;4004;42.624;23.386;2023-04-07T10:59:36;93921.13;;;11.23;34.74
7918;BME280;4004;42.624;23.386;2023-04-07T11:05:05;93918.56;;;10.76;35.16
7918;BME280;4004;42.624;23.386;2023-04-07T11:07:43;93912.53;;;10.60;35.54
7918;BME280;4004;42.624;23.386;2023-04-07T11:10:11;93921.91;;;10.70;34.91
7918;BME280;4004;42.624;23.386;2023-04-07T11:12:40;93929.50;;;10.64;35.96
7918;BME280;4004;42.624;23.386;2023-04-07T11:15:17;93926.34;;;10.58;36.43
7918;BME280;4004;42.624;23.386;2023-04-07T11:17:44;93934.44;;;10.85;36.21
7918;BME280;4004;42.624;23.386;2023-04-07T11:20:12;93915.50;;;11.05;35.84
7918;BME280;4004;42.624;23.386;2023-04-07T11:22:39;93928.25;;;11.08;36.24
7918;BME280;4004;42.624;23.386;2023-04-07T11:25:19;93932.47;;;11.09;36.30
7918;BME280;4004;42.624;23.386;2023-04-07T11:27:47;93931.53;;;10.97;36.75
7918;BME280;4004;42.624;23.386;2023-04-07T11:30:15;93923.06;;;10.95;37.07
7918;BME280;4004;42.624;23.386;2023-04-07T11:32:47;93923.56;;;11.05;37.02
7918;BME280;4004;42.624;23.386;2023-04-07T11:35:16;93928.81;;;10.94;37.34
7918;BME280;4004;42.624;23.386;2023-04-07T11:37:43;93929.16;;;10.92;37.04
7918;BME280;4004;42.624;23.386;2023-04-07T11:40:10;93924.91;;;10.91;36.82
7918;BME280;4004;42.624;23.386;2023-04-07T11:42:41;93920.53;;;11.06;36.66
7918;BME280;4004;42.624;23.386;2023-04-07T11:45:15;93925.97;;;10.83;37.08
7918;BME280;4004;42.624;23.386;2023-04-07T11:47:42;93916.88;;;10.68;37.21
7918;BME280;4004;42.624;23.386;2023-04-07T11:50:09;93926.81;;;10.64;37.67
7918;BME280;4004;42.624;23.386;2023-04-07T11:52:41;93923.41;;;10.67;37.60
7918;BME280;4004;42.624;23.386;2023-04-07T11:55:16;93938.31;;;10.88;37.89
7918;BME280;4004;42.624;23.386;2023-04-07T11:57:43;93927.75;;;11.02;37.63
7918;BME280;4004;42.624;23.386;2023-04-07T12:00:12;93926.81;;;10.91;37.67
7918;BME280;4004;42.624;23.386;2023-04-07T12:02:40;93927.97;;;10.90;38.18
7918;BME280;4004;42.624;23.386;2023-04-07T12:05:07;93935.63;;;11.14;37.63
7918;BME280;4004;42.624;23.386;2023-04-07T12:07:35;93925.88;;;11.33;37.94
7918;BME280;4004;42.624;23.386;2023-04-07T12:13:02;93937.41;;;11.33;37.67
7918;BME280;4004;42.624;23.386;2023-04-07T12:15:28;93925.72;;;11.18;37.51
7918;BME280;4004;42.624;23.386;2023-04-07T12:17:56;93930.44;;;11.02;38.13
7918;BME280;4004;42.624;23.386;2023-04-07T12:20:22;93935.34;;;10.70;39.26
7918;BME280;4004;42.624;23.386;2023-04-07T12:22:49;93940.34;;;10.25;40.20
7918;BME280;4004;42.624;23.386;2023-04-07T12:25:16;93931.13;;;10.26;40.82
7918;BME280;4004;42.624;23.386;2023-04-07T12:27:44;93938.56;;;10.56;39.84
7918;BME280;4004;42.624;23.386;2023-04-07T12:30:13;93949.28;;;10.52;39.56
7918;BME280;4004;42.624;23.386;2023-04-07T12:32:40;93938.09;;;10.73;39.19
7918;BME280;4004;42.624;23.386;2023-04-07T12:35:07;93943.81;;;10.49;39.39
7918;BME280;4004;42.624;23.386;2023-04-07T12:37:34;93946.09;;;10.47;39.35
7918;BME280;4004;42.624;23.386;2023-04-07T12:40:01;93942.72;;;10.50;39.76
7918;BME280;4004;42.624;23.386;2023-04-07T12:42:28;93934.53;;;10.43;40.09
7918;BME280;4004;42.624;23.386;2023-04-07T12:44:55;93928.97;;;10.32;39.70
7918;BME280;4004;42.624;23.386;2023-04-07T12:47:23;93932.63;;;10.43;39.86
7918;BME280;4004;42.624;23.386;2023-04-07T12:49:50;93932.38;;;10.52;39.55
7918;BME280;4004;42.624;23.386;2023-04-07T12:52:16;93932.00;;;10.30;39.60
7918;BME280;4004;42.624;23.386;2023-04-07T12:54:43;93928.69;;;10.17;40.05
7918;BME280;4004;42.624;23.386;2023-04-07T12:57:10;93933.09;;;10.06;41.04
7918;BME280;4004;42.624;23.386;2023-04-07T12:59:37;93943.31;;;10.20;40.33
7918;BME280;4004;42.624;23.386;2023-04-07T13:02:03;93931.09;;;10.23;40.35
7918;BME280;4004;42.624;23.386;2023-04-07T13:04:31;93939.41;;;10.37;40.27
7918;BME280;4004;42.624;23.386;2023-04-07T13:06:59;93938.84;;;10.28;40.32
7918;BME280;4004;42.624;23.386;2023-04-07T13:09:27;93939.34;;;10.33;40.28
7918;BME280;4004;42.624;23.386;2023-04-07T13:11:54;93940.31;;;10.45;39.85
7918;BME280;4004;42.624;23.386;2023-04-07T13:14:21;93946.72;;;10.36;39.92
7918;BME280;4004;42.624;23.386;2023-04-07T13:16:47;93941.34;;;10.36;40.30
7918;BME280;4004;42.624;23.386;2023-04-07T13:19:14;93944.78;;;10.37;40.05
7918;BME280;4004;42.624;23.386;2023-04-07T13:21:42;93939.00;;;10.35;40.53
7918;BME280;4004;42.624;23.386;2023-04-07T13:24:09;93943.25;;;10.16;40.63
7918;BME280;4004;42.624;23.386;2023-04-07T13:26:36;93943.81;;;10.06;41.21
7918;BME280;4004;42.624;23.386;2023-04-07T13:29:03;93947.34;;;10.10;41.32
7918;BME280;4004;42.624;23.386;2023-04-07T13:31:30;93946.63;;;10.13;40.99
7918;BME280;4004;42.624;23.386;2023-04-07T13:33:56;93947.91;;;10.20;40.88
7918;BME280;4004;42.624;23.386;2023-04-07T13:36:24;93955.19;;;10.19;41.18
7918;BME280;4004;42.624;23.386;2023-04-07T13:38:53;93955.50;;;10.14;40.88